sensor_id;sensor_type;location;lat;lon;timestamp;temperature;humidity
17813;DHT22;9030;50.792;8.320;2023-10-08T00:01:36;16.10;99.90
17813;DHT22;9030;50.792;8.320;2023-10-08T00:04:08;16.10;99.90
17813;DHT22;9030;50.792;8.320;2023-10-08T00:06:36;16.10;99.90
17813;DHT22;9030;50.792;8.320;2023-10-08T00:09:04;16.10;99.90
17813;DHT22;9030;50.792;8.320;2023-10-08T00:11:35;16.20;99.90
17813;DHT22;9030;50.792;8.320;2023-10-08T00:14:03;16.10;99.90
17813;DHT22;9030;50.792;8.320;2023-10-08T00:16:30;16.20;99.90
17813;DHT22;9030;50.792;8.320;2023-10-08T00:18:59;16.20;99.90
17813;DHT22;9030;50.792;8.320;2023-10-08T00:21:35;16.20;99.90
17813;DHT22;9030;50.792;8.320;2023-10-08T00:24:03;16.20;99.90
17813;DHT22;9030;50.792;8.320;2023-10-08T00:26:32;16.20;99.90
17813;DHT22;9030;50.792;8.320;2023-10-08T00:29:01;16.20;99.90
17813;DHT22;9030;50.792;8.320;2023-10-08T00:31:33;16.10;99.90
17813;DHT22;9030;50.792;8.320;2023-10-08T00:34:04;16.10;99.90
17813;DHT22;9030;50.792;8.320;2023-10-08T00:36:31;16.10;99.90
17813;DHT22;9030;50.792;8.320;2023-10-08T00:39:03;16.10;99.90
17813;DHT22;9030;50.792;8.320;2023-10-08T00:41:33;16.10;99.90
17813;DHT22;9030;50.792;8.320;2023-10-08T00:44:00;16.00;99.90
17813;DHT22;9030;50.792;8.320;2023-10-08T00:46:31;15.90;99.90
17813;DHT22;9030;50.792;8.320;2023-10-08T00:49:02;15.90;99.90
17813;DHT22;9030;50.792;8.320;2023-10-08T00:51:45;15.80;99.90
17813;DHT22;9030;50.792;8.320;2023-10-08T00:54:26;15.70;99.90
17813;DHT22;9030;50.792;8.320;2023-10-08T00:56:56;15.60;99.90
17813;DHT22;9030;50.792;8.320;2023-10-08T00:59:23;15.60;99.90
17813;DHT22;9030;50.792;8.320;2023-10-08T01:01:52;15.50;99.90
17813;DHT22;9030;50.792;8.320;2023-10-08T01:04:25;15.50;99.90
17813;DHT22;9030;50.792;8.320;2023-10-08T01:06:53;15.50;99.90
17813;DHT22;9030;50.792;8.320;2023-10-08T01:09:25;15.50;99.90
17813;DHT22;9030;50.792;8.320;2023-10-08T01:12:10;15.50;99.90
17813;DHT22;9030;50.792;8.320;2023-10-08T01:14:42;15.30;99.90
17813;DHT22;9030;50.792;8.320;2023-10-08T01:17:09;15.30;99.90
17813;DHT22;9030;50.792;8.320;2023-10-08T01:19:38;15.20;99.90
17813;DHT22;9030;50.792;8.320;2023-10-08T01:22:08;15.20;99.90
17813;DHT22;9030;50.792;8.320;2023-10-08T01:24:42;15.20;99.90
17813;DHT22;9030;50.792;8.320;2023-10-08T01:27:09;15.20;99.90
17813;DHT22;9030;50.792;8.320;2023-10-08T01:29:37;15.20;99.90
17813;DHT22;9030;50.792;8.320;2023-10-08T01:32:04;15.30;99.90
17813;DHT22;9030;50.792;8.320;2023-10-08T01:34:36;15.30;99.90
17813;DHT22;9030;50.792;8.320;2023-10-08T01:37:03;15.20;99.90
17813;DHT22;9030;50.792;8.320;2023-10-08T01:39:36;15.10;99.90
17813;DHT22;9030;50.792;8.320;2023-10-08T01:42:03;15.10;99.90
17813;DHT22;9030;50.792;8.320;2023-10-08T01:44:31;15.00;99.90
17813;DHT22;9030;50.792;8.320;2023-10-08T01:46:59;15.00;99.90
17813;DHT22;9030;50.792;8.320;2023-10-08T01:49:26;15.10;99.90
17813;DHT22;9030;50.792;8.320;2023-10-08T01:51:57;15.20;99.90
17813;DHT22;9030;50.792;8.320;2023-10-08T01:54:24;15.10;99.90
17813;DHT22;9030;50.792;8.320;2023-10-08T01:56:52;15.10;99.90
17813;DHT22;9030;50.792;8.320;2023-10-08T01:59:19;15.20;99.90
17813;DHT22;9030;50.792;8.320;2023-10-08T02:01:46;15.10;99.90
17813;DHT22;9030;50.792;8.320;2023-10-08T02:04:13;15.20;99.90
17813;DHT22;9030;50.792;8.320;2023-10-08T02:06:41;15.10;99.90
17813;DHT22;9030;50.792;8.320;2023-10-08T02:09:08;15.10;99.90
17813;DHT22;9030;50.792;8.320;2023-10-08T02:11:45;15.10;99.90
17813;DHT22;9030;50.792;8.320;2023-10-08T02:14:16;15.10;99.90
17813;DHT22;9030;50.792;8.320;2023-10-08T02:16:44;15.10;99.90
17813;DHT22;9030;50.792;8.320;2023-10-08T02:19:10;15.10;99.90
17813;DHT22;9030;50.792;8.320;2023-10-08T02:21:37;15.20;99.90
17813;DHT22;9030;50.792;8.320;2023-10-08T02:24:05;15.10;99.90
17813;DHT22;9030;50.792;8.320;2023-10-08T02:26:32;15.10;99.90
17813;DHT22;9030;50.792;8.320;2023-10-08T02:29:00;14.90;99.90
17813;DHT22;9030;50.792;8.320;2023-10-08T02:31:28;14.90;99.90
17813;DHT22;9030;50.792;8.320;2023-10-08T02:33:54;14.80;99.90
17813;DHT22;9030;50.792;8.320;2023-10-08T02:36:24;14.90;99.90
17813;DHT22;9030;50.792;8.320;2023-10-08T02:38:51;14.80;99.90
17813;DHT22;9030;50.792;8.320;2023-10-08T02:41:17;14.60;99.90
17813;DHT22;9030;50.792;8.320;2023-10-08T02:43:44;14.60;99.90
17813;DHT22;9030;50.792;8.320;2023-10-08T02:46:11;14.60;99.90
17813;DHT22;9030;50.792;8.320;2023-10-08T02:48:41;14.50;99.90
17813;DHT22;9030;50.792;8.320;2023-10-08T02:51:08;14.50;99.90
17813;DHT22;9030;50.792;8.320;2023-10-08T02:53:40;14.70;99.90
17813;DHT22;9030;50.792;8.320;2023-10-08T02:56:08;14.60;99.90
17813;DHT22;9030;50.792;8.320;2023-10-08T02:58:38;14.60;99.90
17813;DHT22;9030;50.792;8.320;2023-10-08T03:01:06;14.60;99.90
17813;DHT22;9030;50.792;8.320;2023-10-08T03:03:38;14.60;99.90
17813;DHT22;9030;50.792;8.320;2023-10-08T03:06:06;14.70;99.90
17813;DHT22;9030;50.792;8.320;2023-10-08T03:08:37;14.60;99.90
17813;DHT22;9030;50.792;8.320;2023-10-08T03:11:08;14.60;99.90
17813;DHT22;9030;50.792;8.320;2023-10-08T03:13:42;14.60;99.90
17813;DHT22;9030;50.792;8.320;2023-10-08T03:16:12;14.60;99.90
17813;DHT22;9030;50.792;8.320;2023-10-08T03:18:39;14.60;99.90
17813;DHT22;9030;50.792;8.320;2023-10-08T03:21:09;14.50;99.90
17813;DHT22;9030;50.792;8.320;2023-10-08T03:23:45;14.40;99.90
17813;DHT22;9030;50.792;8.320;2023-10-08T03:26:13;14.30;99.90
17813;DHT22;9030;50.792;8.320;2023-10-08T03:28:58;14.20;99.90
17813;DHT22;9030;50.792;8.320;2023-10-08T03:31:25;14.20;99.90
17813;DHT22;9030;50.792;8.320;2023-10-08T03:34:10;14.10;99.90
17813;DHT22;9030;50.792;8.320;2023-10-08T03:36:39;13.80;99.90
17813;DHT22;9030;50.792;8.320;2023-10-08T03:39:10;13.70;99.90
17813;DHT22;9030;50.792;8.320;2023-10-08T03:41:39;13.50;99.90
17813;DHT22;9030;50.792;8.320;2023-10-08T03:44:07;13.50;99.90
17813;DHT22;9030;50.792;8.320;2023-10-08T03:46:39;13.40;99.90
17813;DHT22;9030;50.792;8.320;2023-10-08T03:49:08;13.30;99.90
17813;DHT22;9030;50.792;8.320;2023-10-08T03:51:42;13.30;99.90
17813;DHT22;9030;50.792;8.320;2023-10-08T03:54:08;13.40;99.90
17813;DHT22;9030;50.792;8.320;2023-10-08T03:56:43;13.50;99.90
17813;DHT22;9030;50.792;8.320;2023-10-08T03:59:14;13.50;99.90
17813;DHT22;9030;50.792;8.320;2023-10-08T04:01:46;13.40;99.90
17813;DHT22;9030;50.792;8.320;2023-10-08T04:04:14;13.40;99.90
17813;DHT22;9030;50.792;8.320;2023-10-08T04:06:42;13.50;99.90
17813;DHT22;9030;50.792;8.320;2023-10-08T04:09:15;13.50;99.90
17813;DHT22;9030;50.792;8.320;2023-10-08T04:11:50;13.50;99.90
17813;DHT22;9030;50.792;8.320;2023-10-08T04:14:22;13.50;99.90
17813;DHT22;9030;50.792;8.320;2023-10-08T04:16:49;13.40;99.90
17813;DHT22;9030;50.792;8.320;2023-10-08T04:19:18;13.40;99.90
17813;DHT22;9030;50.792;8.320;2023-10-08T04:21:47;13.50;99.90
17813;DHT22;9030;50.792;8.320;2023-10-08T04:24:24;13.60;99.90
17813;DHT22;9030;50.792;8.320;2023-10-08T04:26:55;13.70;99.90
17813;DHT22;9030;50.792;8.320;2023-10-08T04:29:27;13.70;99.90
17813;DHT22;9030;50.792;8.320;2023-10-08T04:31:57;13.70;99.90
17813;DHT22;9030;50.792;8.320;2023-10-08T04:34:33;13.70;99.90
17813;DHT22;9030;50.792;8.320;2023-10-08T04:37:01;13.70;99.90
17813;DHT22;9030;50.792;8.320;2023-10-08T04:39:30;13.70;99.90
17813;DHT22;9030;50.792;8.320;2023-10-08T04:41:59;13.80;99.90
17813;DHT22;9030;50.792;8.320;2023-10-08T04:44:32;14.10;99.90
17813;DHT22;9030;50.792;8.320;2023-10-08T04:46:59;14.20;99.90
17813;DHT22;9030;50.792;8.320;2023-10-08T04:49:31;14.30;99.90
17813;DHT22;9030;50.792;8.320;2023-10-08T04:52:02;14.30;99.90
17813;DHT22;9030;50.792;8.320;2023-10-08T04:54:34;14.20;99.90
17813;DHT22;9030;50.792;8.320;2023-10-08T04:57:06;14.20;99.90
17813;DHT22;9030;50.792;8.320;2023-10-08T04:59:38;14.30;99.90
17813;DHT22;9030;50.792;8.320;2023-10-08T05:02:05;14.30;99.90
17813;DHT22;9030;50.792;8.320;2023-10-08T05:04:58;14.20;99.90
17813;DHT22;9030;50.792;8.320;2023-10-08T05:07:49;14.10;99.90
17813;DHT22;9030;50.792;8.320;2023-10-08T05:10:27;14.00;99.90
17813;DHT22;9030;50.792;8.320;2023-10-08T05:13:09;14.00;99.90
17813;DHT22;9030;50.792;8.320;2023-10-08T05:15:42;14.00;99.90
17813;DHT22;9030;50.792;8.320;2023-10-08T05:18:27;14.00;99.90
17813;DHT22;9030;50.792;8.320;2023-10-08T05:21:14;13.90;99.90
17813;DHT22;9030;50.792;8.320;2023-10-08T05:23:52;14.10;99.90
17813;DHT22;9030;50.792;8.320;2023-10-08T05:26:40;14.30;99.90
17813;DHT22;9030;50.792;8.320;2023-10-08T05:29:14;14.50;99.90
17813;DHT22;9030;50.792;8.320;2023-10-08T05:32:17;14.50;99.90
17813;DHT22;9030;50.792;8.320;2023-10-08T05:35:04;14.50;99.90
17813;DHT22;9030;50.792;8.320;2023-10-08T05:37:45;14.50;99.90
17813;DHT22;9030;50.792;8.320;2023-10-08T05:40:19;14.40;99.90
17813;DHT22;9030;50.792;8.320;2023-10-08T05:43:06;14.40;99.90
17813;DHT22;9030;50.792;8.320;2023-10-08T05:45:48;14.40;99.90
17813;DHT22;9030;50.792;8.320;2023-10-08T05:48:38;14.30;99.90
17813;DHT22;9030;50.792;8.320;2023-10-08T05:51:10;14.30;99.90
17813;DHT22;9030;50.792;8.320;2023-10-08T05:53:49;14.20;99.90
17813;DHT22;9030;50.792;8.320;2023-10-08T05:56:22;14.20;99.90
17813;DHT22;9030;50.792;8.320;2023-10-08T05:59:07;14.20;99.90
17813;DHT22;9030;50.792;8.320;2023-10-08T06:01:43;14.20;99.90
17813;DHT22;9030;50.792;8.320;2023-10-08T06:04:11;14.10;99.90
17813;DHT22;9030;50.792;8.320;2023-10-08T06:06:56;14.10;99.90
17813;DHT22;9030;50.792;8.320;2023-10-08T06:09:37;14.20;99.90
17813;DHT22;9030;50.792;8.320;2023-10-08T06:12:06;14.10;99.90
17813;DHT22;9030;50.792;8.320;2023-10-08T06:14:36;14.00;99.90
17813;DHT22;9030;50.792;8.320;2023-10-08T06:17:19;14.00;99.90
17813;DHT22;9030;50.792;8.320;2023-10-08T06:20:00;14.10;99.90
17813;DHT22;9030;50.792;8.320;2023-10-08T06:22:27;14.20;99.90
17813;DHT22;9030;50.792;8.320;2023-10-08T06:24:53;14.40;99.90
17813;DHT22;9030;50.792;8.320;2023-10-08T06:27:41;14.70;99.90
17813;DHT22;9030;50.792;8.320;2023-10-08T06:30:10;14.60;99.90
17813;DHT22;9030;50.792;8.320;2023-10-08T06:32:42;14.60;99.90
17813;DHT22;9030;50.792;8.320;2023-10-08T06:35:10;14.60;99.90
17813;DHT22;9030;50.792;8.320;2023-10-08T06:37:43;14.60;99.90
17813;DHT22;9030;50.792;8.320;2023-10-08T06:40:10;14.50;99.90
17813;DHT22;9030;50.792;8.320;2023-10-08T06:43:00;14.50;99.90
17813;DHT22;9030;50.792;8.320;2023-10-08T06:45:36;14.50;99.90
17813;DHT22;9030;50.792;8.320;2023-10-08T06:48:05;14.40;99.90
17813;DHT22;9030;50.792;8.320;2023-10-08T06:50:32;14.40;99.90
17813;DHT22;9030;50.792;8.320;2023-10-08T06:53:01;14.40;99.90
17813;DHT22;9030;50.792;8.320;2023-10-08T06:55:31;14.50;99.90
17813;DHT22;9030;50.792;8.320;2023-10-08T06:58:01;14.50;99.90
17813;DHT22;9030;50.792;8.320;2023-10-08T07:00:31;14.50;99.90
17813;DHT22;9030;50.792;8.320;2023-10-08T07:03:05;14.60;99.90
17813;DHT22;9030;50.792;8.320;2023-10-08T07:05:33;14.60;99.90
17813;DHT22;9030;50.792;8.320;2023-10-08T07:08:06;14.60;99.90
17813;DHT22;9030;50.792;8.320;2023-10-08T07:10:33;14.70;99.90
17813;DHT22;9030;50.792;8.320;2023-10-08T07:13:02;14.70;99.90
17813;DHT22;9030;50.792;8.320;2023-10-08T07:15:30;14.80;99.90
17813;DHT22;9030;50.792;8.320;2023-10-08T07:17:57;14.90;99.90
17813;DHT22;9030;50.792;8.320;2023-10-08T07:20:34;15.00;99.90
17813;DHT22;9030;50.792;8.320;2023-10-08T07:23:04;15.00;99.90
17813;DHT22;9030;50.792;8.320;2023-10-08T07:25:35;15.00;99.90
17813;DHT22;9030;50.792;8.320;2023-10-08T07:28:05;15.00;99.90
17813;DHT22;9030;50.792;8.320;2023-10-08T07:30:36;15.10;99.90
17813;DHT22;9030;50.792;8.320;2023-10-08T07:33:05;15.20;99.90
17813;DHT22;9030;50.792;8.320;2023-10-08T07:35:32;15.20;99.90
17813;DHT22;9030;50.792;8.320;2023-10-08T07:38:04;15.30;99.90
17813;DHT22;9030;50.792;8.320;2023-10-08T07:40:35;15.30;99.90
17813;DHT22;9030;50.792;8.320;2023-10-08T07:43:03;15.30;99.90
17813;DHT22;9030;50.792;8.320;2023-10-08T07:45:35;15.50;99.90
17813;DHT22;9030;50.792;8.320;2023-10-08T07:48:02;15.50;99.90
17813;DHT22;9030;50.792;8.320;2023-10-08T07:50:35;15.50;99.90
17813;DHT22;9030;50.792;8.320;2023-10-08T07:53:03;15.60;99.90
17813;DHT22;9030;50.792;8.320;2023-10-08T07:55:30;15.60;99.90
17813;DHT22;9030;50.792;8.320;2023-10-08T07:57:58;15.60;99.90
17813;DHT22;9030;50.792;8.320;2023-10-08T08:00:24;15.60;99.90
17813;DHT22;9030;50.792;8.320;2023-10-08T08:02:57;15.60;99.90
17813;DHT22;9030;50.792;8.320;2023-10-08T08:05:24;15.50;99.90
17813;DHT22;9030;50.792;8.320;2023-10-08T08:07:50;15.50;99.90
17813;DHT22;9030;50.792;8.320;2023-10-08T08:10:17;15.50;99.90
17813;DHT22;9030;50.792;8.320;2023-10-08T08:12:44;15.60;99.90
17813;DHT22;9030;50.792;8.320;2023-10-08T08:15:11;15.70;99.90
17813;DHT22;9030;50.792;8.320;2023-10-08T08:17:41;15.70;99.90
17813;DHT22;9030;50.792;8.320;2023-10-08T08:20:10;15.80;99.90
17813;DHT22;9030;50.792;8.320;2023-10-08T08:22:44;15.80;99.90
17813;DHT22;9030;50.792;8.320;2023-10-08T08:25:15;15.70;99.90
17813;DHT22;9030;50.792;8.320;2023-10-08T08:27:51;15.70;99.90
17813;DHT22;9030;50.792;8.320;2023-10-08T08:30:18;15.80;99.90
17813;DHT22;9030;50.792;8.320;2023-10-08T08:32:46;15.80;99.90
17813;DHT22;9030;50.792;8.320;2023-10-08T08:35:15;15.70;99.90
17813;DHT22;9030;50.792;8.320;2023-10-08T08:37:43;15.80;99.90
17813;DHT22;9030;50.792;8.320;2023-10-08T08:40:12;16.00;99.90
17813;DHT22;9030;50.792;8.320;2023-10-08T08:42:44;16.30;99.90
17813;DHT22;9030;50.792;8.320;2023-10-08T08:45:13;16.40;99.90
17813;DHT22;9030;50.792;8.320;2023-10-08T08:47:43;16.50;99.90
17813;DHT22;9030;50.792;8.320;2023-10-08T08:50:10;16.60;99.90
17813;DHT22;9030;50.792;8.320;2023-10-08T08:52:39;16.80;99.90
17813;DHT22;9030;50.792;8.320;2023-10-08T08:55:07;16.90;99.90
17813;DHT22;9030;50.792;8.320;2023-10-08T08:57:40;17.20;99.90
17813;DHT22;9030;50.792;8.320;2023-10-08T09:00:11;17.50;99.90
17813;DHT22;9030;50.792;8.320;2023-10-08T09:02:39;17.80;99.90
17813;DHT22;9030;50.792;8.320;2023-10-08T09:05:06;17.90;99.90
17813;DHT22;9030;50.792;8.320;2023-10-08T09:07:55;17.90;99.90
17813;DHT22;9030;50.792;8.320;2023-10-08T09:10:22;17.80;99.90
17813;DHT22;9030;50.792;8.320;2023-10-08T09:12:53;17.70;99.90
17813;DHT22;9030;50.792;8.320;2023-10-08T09:15:23;17.80;99.90
17813;DHT22;9030;50.792;8.320;2023-10-08T09:17:51;17.90;99.90
17813;DHT22;9030;50.792;8.320;2023-10-08T09:20:18;18.20;99.90
17813;DHT22;9030;50.792;8.320;2023-10-08T09:22:46;18.30;99.90
17813;DHT22;9030;50.792;8.320;2023-10-08T09:25:20;18.10;99.90
17813;DHT22;9030;50.792;8.320;2023-10-08T09:27:51;17.90;99.90
17813;DHT22;9030;50.792;8.320;2023-10-08T09:30:21;17.90;99.90
17813;DHT22;9030;50.792;8.320;2023-10-08T09:32:47;17.70;99.90
17813;DHT22;9030;50.792;8.320;2023-10-08T09:35:15;17.50;99.90
17813;DHT22;9030;50.792;8.320;2023-10-08T09:37:43;17.30;99.90
17813;DHT22;9030;50.792;8.320;2023-10-08T09:40:11;17.10;99.90
17813;DHT22;9030;50.792;8.320;2023-10-08T09:42:40;17.00;99.90
17813;DHT22;9030;50.792;8.320;2023-10-08T09:45:09;16.90;99.90
17813;DHT22;9030;50.792;8.320;2023-10-08T09:47:40;16.90;99.90
17813;DHT22;9030;50.792;8.320;2023-10-08T09:50:10;16.90;99.90
17813;DHT22;9030;50.792;8.320;2023-10-08T09:52:42;16.80;99.90
17813;DHT22;9030;50.792;8.320;2023-10-08T09:55:18;16.80;99.90
17813;DHT22;9030;50.792;8.320;2023-10-08T09:57:46;16.80;99.90
17813;DHT22;9030;50.792;8.320;2023-10-08T10:00:16;16.90;99.90
17813;DHT22;9030;50.792;8.320;2023-10-08T10:02:44;16.90;99.90
17813;DHT22;9030;50.792;8.320;2023-10-08T10:05:11;16.90;99.90
17813;DHT22;9030;50.792;8.320;2023-10-08T10:07:40;17.00;99.90
17813;DHT22;9030;50.792;8.320;2023-10-08T10:10:26;16.90;99.90
17813;DHT22;9030;50.792;8.320;2023-10-08T10:12:58;17.00;99.90
17813;DHT22;9030;50.792;8.320;2023-10-08T10:15:26;16.90;99.90
17813;DHT22;9030;50.792;8.320;2023-10-08T10:17:58;16.80;99.90
17813;DHT22;9030;50.792;8.320;2023-10-08T10:20:25;16.70;99.90
17813;DHT22;9030;50.792;8.320;2023-10-08T10:22:53;16.70;99.90
17813;DHT22;9030;50.792;8.320;2023-10-08T10:25:34;16.80;99.90
17813;DHT22;9030;50.792;8.320;2023-10-08T10:28:22;16.90;99.90
17813;DHT22;9030;50.792;8.320;2023-10-08T10:30:50;17.00;99.90
17813;DHT22;9030;50.792;8.320;2023-10-08T10:33:17;17.10;99.90
17813;DHT22;9030;50.792;8.320;2023-10-08T10:35:50;17.10;99.90
17813;DHT22;9030;50.792;8.320;2023-10-08T10:38:18;17.10;99.90
17813;DHT22;9030;50.792;8.320;2023-10-08T10:40:48;17.00;99.90
17813;DHT22;9030;50.792;8.320;2023-10-08T10:43:24;17.20;99.90
17813;DHT22;9030;50.792;8.320;2023-10-08T10:45:59;17.30;99.90
17813;DHT22;9030;50.792;8.320;2023-10-08T10:48:31;17.30;99.90
17813;DHT22;9030;50.792;8.320;2023-10-08T10:51:00;17.40;99.90
17813;DHT22;9030;50.792;8.320;2023-10-08T10:53:36;17.40;99.90
17813;DHT22;9030;50.792;8.320;2023-10-08T10:56:12;17.30;99.90
17813;DHT22;9030;50.792;8.320;2023-10-08T10:58:46;17.40;99.90
17813;DHT22;9030;50.792;8.320;2023-10-08T11:01:21;17.50;99.90
17813;DHT22;9030;50.792;8.320;2023-10-08T11:03:50;17.70;99.90
17813;DHT22;9030;50.792;8.320;2023-10-08T11:06:18;17.80;99.90
17813;DHT22;9030;50.792;8.320;2023-10-08T11:08:49;17.90;99.90
17813;DHT22;9030;50.792;8.320;2023-10-08T11:11:17;18.00;99.90
17813;DHT22;9030;50.792;8.320;2023-10-08T11:13:45;18.10;99.90
17813;DHT22;9030;50.792;8.320;2023-10-08T11:16:17;18.20;99.90
17813;DHT22;9030;50.792;8.320;2023-10-08T11:18:47;18.40;99.90
17813;DHT22;9030;50.792;8.320;2023-10-08T11:21:16;18.40;99.90
17813;DHT22;9030;50.792;8.320;2023-10-08T11:23:50;18.30;99.90
17813;DHT22;9030;50.792;8.320;2023-10-08T11:26:22;18.20;99.90
17813;DHT22;9030;50.792;8.320;2023-10-08T11:28:59;18.30;99.90
17813;DHT22;9030;50.792;8.320;2023-10-08T11:31:29;18.30;99.90
17813;DHT22;9030;50.792;8.320;2023-10-08T11:33:59;18.30;99.90
17813;DHT22;9030;50.792;8.320;2023-10-08T11:36:28;18.40;99.90
17813;DHT22;9030;50.792;8.320;2023-10-08T11:38:56;18.50;99.90
17813;DHT22;9030;50.792;8.320;2023-10-08T11:41:28;18.60;99.90
17813;DHT22;9030;50.792;8.320;2023-10-08T11:43:56;18.50;99.90
17813;DHT22;9030;50.792;8.320;2023-10-08T11:46:27;18.40;99.90
17813;DHT22;9030;50.792;8.320;2023-10-08T11:48:58;18.40;99.90
17813;DHT22;9030;50.792;8.320;2023-10-08T11:51:30;18.50;99.90
17813;DHT22;9030;50.792;8.320;2023-10-08T11:53:58;18.60;99.90
17813;DHT22;9030;50.792;8.320;2023-10-08T11:56:25;18.60;99.90
17813;DHT22;9030;50.792;8.320;2023-10-08T11:58:53;18.70;99.90
17813;DHT22;9030;50.792;8.320;2023-10-08T12:01:22;18.60;99.90
17813;DHT22;9030;50.792;8.320;2023-10-08T12:03:50;18.60;99.90
17813;DHT22;9030;50.792;8.320;2023-10-08T12:06:17;18.60;99.90
17813;DHT22;9030;50.792;8.320;2023-10-08T12:08:45;18.50;99.90
17813;DHT22;9030;50.792;8.320;2023-10-08T12:11:15;18.50;99.90
17813;DHT22;9030;50.792;8.320;2023-10-08T12:13:42;18.30;99.90
17813;DHT22;9030;50.792;8.320;2023-10-08T12:16:12;17.40;99.90
17813;DHT22;9030;50.792;8.320;2023-10-08T12:18:44;16.90;99.90
17813;DHT22;9030;50.792;8.320;2023-10-08T12:21:15;17.00;99.90
17813;DHT22;9030;50.792;8.320;2023-10-08T12:23:43;16.90;99.90
17813;DHT22;9030;50.792;8.320;2023-10-08T12:26:11;16.70;99.90
17813;DHT22;9030;50.792;8.320;2023-10-08T12:28:41;16.50;99.90
17813;DHT22;9030;50.792;8.320;2023-10-08T12:31:09;16.30;99.90
17813;DHT22;9030;50.792;8.320;2023-10-08T12:33:36;16.10;99.90
17813;DHT22;9030;50.792;8.320;2023-10-08T12:36:03;16.10;99.90
17813;DHT22;9030;50.792;8.320;2023-10-08T12:38:37;16.00;99.90
17813;DHT22;9030;50.792;8.320;2023-10-08T12:41:04;16.10;99.90
17813;DHT22;9030;50.792;8.320;2023-10-08T12:43:37;15.90;99.90
17813;DHT22;9030;50.792;8.320;2023-10-08T12:46:05;15.80;99.90
17813;DHT22;9030;50.792;8.320;2023-10-08T12:48:36;15.70;99.90
17813;DHT22;9030;50.792;8.320;2023-10-08T12:51:03;15.70;99.90
17813;DHT22;9030;50.792;8.320;2023-10-08T12:53:32;15.50;99.90
17813;DHT22;9030;50.792;8.320;2023-10-08T12:56:01;15.40;99.90
17813;DHT22;9030;50.792;8.320;2023-10-08T12:58:32;15.50;99.90
17813;DHT22;9030;50.792;8.320;2023-10-08T13:01:04;15.50;99.90
17813;DHT22;9030;50.792;8.320;2023-10-08T13:03:32;15.80;99.90
17813;DHT22;9030;50.792;8.320;2023-10-08T13:06:06;15.70;99.90
17813;DHT22;9030;50.792;8.320;2023-10-08T13:08:37;15.70;99.90
17813;DHT22;9030;50.792;8.320;2023-10-08T13:11:05;15.80;99.90
17813;DHT22;9030;50.792;8.320;2023-10-08T13:13:31;15.90;99.90
17813;DHT22;9030;50.792;8.320;2023-10-08T13:15:59;15.80;99.90
17813;DHT22;9030;50.792;8.320;2023-10-08T13:18:29;15.60;99.90
17813;DHT22;9030;50.792;8.320;2023-10-08T13:20:58;15.40;99.90
17813;DHT22;9030;50.792;8.320;2023-10-08T13:23:26;15.50;99.90
17813;DHT22;9030;50.792;8.320;2023-10-08T13:25:54;15.50;99.90
17813;DHT22;9030;50.792;8.320;2023-10-08T13:28:22;15.70;99.90
17813;DHT22;9030;50.792;8.320;2023-10-08T13:30:52;15.80;99.90
17813;DHT22;9030;50.792;8.320;2023-10-08T13:33:20;15.80;99.90
17813;DHT22;9030;50.792;8.320;2023-10-08T13:35:47;15.80;99.90
17813;DHT22;9030;50.792;8.320;2023-10-08T13:38:15;15.70;99.90
17813;DHT22;9030;50.792;8.320;2023-10-08T13:40:45;15.80;99.90
17813;DHT22;9030;50.792;8.320;2023-10-08T13:43:29;15.90;99.90
17813;DHT22;9030;50.792;8.320;2023-10-08T13:46:01;16.00;99.90
17813;DHT22;9030;50.792;8.320;2023-10-08T13:48:30;15.90;99.90
17813;DHT22;9030;50.792;8.320;2023-10-08T13:50:58;15.90;99.90
17813;DHT22;9030;50.792;8.320;2023-10-08T13:53:26;15.80;99.90
17813;DHT22;9030;50.792;8.320;2023-10-08T13:55:55;15.90;99.90
17813;DHT22;9030;50.792;8.320;2023-10-08T13:58:22;15.90;99.90
17813;DHT22;9030;50.792;8.320;2023-10-08T14:00:51;15.90;99.90
17813;DHT22;9030;50.792;8.320;2023-10-08T14:03:18;16.00;99.90
17813;DHT22;9030;50.792;8.320;2023-10-08T14:05:47;16.00;99.90
17813;DHT22;9030;50.792;8.320;2023-10-08T14:08:16;15.80;99.90
17813;DHT22;9030;50.792;8.320;2023-10-08T14:10:43;15.80;99.90
17813;DHT22;9030;50.792;8.320;2023-10-08T14:13:10;16.00;99.90
17813;DHT22;9030;50.792;8.320;2023-10-08T14:15:36;16.00;99.90
17813;DHT22;9030;50.792;8.320;2023-10-08T14:18:10;16.00;99.90
17813;DHT22;9030;50.792;8.320;2023-10-08T14:20:42;16.20;99.90
17813;DHT22;9030;50.792;8.320;2023-10-08T14:23:12;16.10;99.90
17813;DHT22;9030;50.792;8.320;2023-10-08T14:25:42;16.20;99.90
17813;DHT22;9030;50.792;8.320;2023-10-08T14:28:10;16.10;99.90
17813;DHT22;9030;50.792;8.320;2023-10-08T14:30:47;16.10;99.90
17813;DHT22;9030;50.792;8.320;2023-10-08T14:33:20;16.10;99.90
17813;DHT22;9030;50.792;8.320;2023-10-08T14:35:52;16.10;99.90
17813;DHT22;9030;50.792;8.320;2023-10-08T14:38:36;16.10;99.90
17813;DHT22;9030;50.792;8.320;2023-10-08T14:41:20;16.00;99.90
17813;DHT22;9030;50.792;8.320;2023-10-08T14:44:05;16.10;99.90
17813;DHT22;9030;50.792;8.320;2023-10-08T14:46:32;16.00;99.90
17813;DHT22;9030;50.792;8.320;2023-10-08T14:49:03;16.00;99.90
17813;DHT22;9030;50.792;8.320;2023-10-08T14:51:36;15.90;99.90
17813;DHT22;9030;50.792;8.320;2023-10-08T14:54:04;15.90;99.90
17813;DHT22;9030;50.792;8.320;2023-10-08T14:56:32;15.90;99.90
17813;DHT22;9030;50.792;8.320;2023-10-08T14:58:59;15.90;99.90
17813;DHT22;9030;50.792;8.320;2023-10-08T15:01:26;15.90;99.90
17813;DHT22;9030;50.792;8.320;2023-10-08T15:03:53;15.90;99.90
17813;DHT22;9030;50.792;8.320;2023-10-08T15:06:21;16.10;99.90
17813;DHT22;9030;50.792;8.320;2023-10-08T15:08:48;16.00;99.90
17813;DHT22;9030;50.792;8.320;2023-10-08T15:11:15;15.90;99.90
17813;DHT22;9030;50.792;8.320;2023-10-08T15:13:42;15.90;99.90
17813;DHT22;9030;50.792;8.320;2023-10-08T15:16:11;15.80;99.90
17813;DHT22;9030;50.792;8.320;2023-10-08T15:18:38;15.80;99.90
17813;DHT22;9030;50.792;8.320;2023-10-08T15:21:08;15.70;99.90
17813;DHT22;9030;50.792;8.320;2023-10-08T15:23:35;15.70;99.90
17813;DHT22;9030;50.792;8.320;2023-10-08T15:26:03;15.50;99.90
17813;DHT22;9030;50.792;8.320;2023-10-08T15:28:30;15.40;99.90
17813;DHT22;9030;50.792;8.320;2023-10-08T15:30:57;15.40;99.90
17813;DHT22;9030;50.792;8.320;2023-10-08T15:33:24;15.50;99.90
17813;DHT22;9030;50.792;8.320;2023-10-08T15:35:51;15.40;99.90
17813;DHT22;9030;50.792;8.320;2023-10-08T15:38:18;15.40;99.90
17813;DHT22;9030;50.792;8.320;2023-10-08T15:40:46;15.30;99.90
17813;DHT22;9030;50.792;8.320;2023-10-08T15:43:15;15.20;99.90
17813;DHT22;9030;50.792;8.320;2023-10-08T15:45:41;15.00;99.90
17813;DHT22;9030;50.792;8.320;2023-10-08T15:48:10;15.00;99.90
17813;DHT22;9030;50.792;8.320;2023-10-08T15:50:37;14.90;99.90
17813;DHT22;9030;50.792;8.320;2023-10-08T15:53:05;14.90;99.90
17813;DHT22;9030;50.792;8.320;2023-10-08T15:55:31;14.90;99.90
17813;DHT22;9030;50.792;8.320;2023-10-08T15:57:59;14.90;99.90
17813;DHT22;9030;50.792;8.320;2023-10-08T16:00:26;14.90;99.90
17813;DHT22;9030;50.792;8.320;2023-10-08T16:02:53;14.90;99.90
17813;DHT22;9030;50.792;8.320;2023-10-08T16:05:20;14.80;99.90
17813;DHT22;9030;50.792;8.320;2023-10-08T16:07:46;14.70;99.90